createdAt,value
2018-04-28T00:01:20.729Z,10.24
2018-04-28T00:03:46.605Z,10.35
2018-04-28T00:06:12.497Z,10.28
2018-04-28T00:08:38.394Z,10.31
2018-04-28T00:11:04.261Z,10.26
2018-04-28T00:13:31.037Z,10.33
2018-04-28T00:16:01.619Z,10.27
2018-04-28T00:18:27.508Z,10.03
2018-04-28T00:20:53.386Z,9.91
2018-04-28T00:23:19.261Z,9.51
2018-04-28T00:25:45.161Z,9.48
2018-04-28T00:28:11.000Z,9.38
2018-04-28T00:30:40.825Z,9.88
2018-04-28T00:33:14.636Z,9.83
2018-04-28T00:35:40.749Z,9.95
2018-04-28T00:38:06.667Z,9.97
2018-04-28T00:40:35.352Z,9.96
2018-04-28T00:43:01.212Z,9.82
2018-04-28T00:45:28.805Z,9.87
2018-04-28T00:47:54.656Z,9.89
2018-04-28T00:50:34.271Z,9.91
2018-04-28T00:53:00.126Z,10.08
2018-04-28T00:55:38.836Z,10.05
2018-04-28T01:01:28.138Z,10.20
2018-04-28T01:04:01.753Z,10.13
2018-04-28T01:06:27.649Z,9.70
2018-04-28T01:08:56.361Z,9.74
2018-04-28T01:11:24.072Z,9.62
2018-04-28T01:13:52.782Z,9.57
2018-04-28T01:16:18.728Z,9.69
2018-04-28T01:21:44.320Z,9.85
2018-04-28T01:24:25.962Z,9.83
2018-04-28T01:30:10.130Z,9.56
2018-04-28T01:35:46.803Z,9.48
2018-04-28T01:38:13.469Z,8.58
2018-04-28T01:40:39.324Z,8.98
2018-04-28T01:43:14.304Z,9.30
2018-04-28T01:45:50.128Z,9.38
2018-04-28T01:48:17.918Z,9.32
2018-04-28T01:50:43.805Z,9.35
2018-04-28T01:53:09.754Z,9.35
2018-04-28T01:55:37.249Z,9.23
2018-04-28T01:58:06.005Z,9.40
2018-04-28T02:00:44.000Z,9.33
2018-04-28T02:03:10.732Z,9.24
2018-04-28T02:05:41.360Z,8.95
2018-04-28T02:08:08.296Z,8.79
2018-04-28T02:10:38.921Z,8.99
2018-04-28T02:13:06.664Z,9.06
2018-04-28T02:15:34.577Z,9.19
2018-04-28T02:20:56.266Z,9.12
2018-04-28T02:23:29.064Z,9.22
2018-04-28T02:25:56.889Z,8.99
2018-04-28T02:31:26.569Z,9.12
2018-04-28T02:33:52.500Z,9.14
2018-04-28T02:36:19.227Z,9.12
2018-04-28T02:38:45.117Z,9.21
2018-04-28T02:44:29.750Z,9.19
2018-04-28T02:46:57.521Z,9.08
2018-04-28T02:49:54.309Z,9.03
2018-04-28T02:52:21.175Z,9.16
2018-04-28T02:54:50.785Z,9.26
2018-04-28T02:57:25.693Z,9.26
2018-04-28T02:59:57.616Z,9.10
2018-04-28T03:02:30.280Z,9.13
2018-04-28T03:04:56.956Z,9.10
2018-04-28T03:10:26.664Z,9.09
2018-04-28T03:12:52.562Z,9.19
2018-04-28T03:15:18.428Z,9.24
2018-04-28T03:17:59.272Z,9.23
2018-04-28T03:20:25.913Z,9.04
2018-04-28T03:22:56.642Z,8.97
2018-04-28T03:25:25.536Z,8.96
2018-04-28T03:28:00.284Z,8.91
2018-04-28T03:30:26.169Z,9.04
2018-04-28T03:32:52.033Z,9.06
2018-04-28T03:35:18.931Z,9.01
2018-04-28T03:37:46.832Z,9.06
2018-04-28T03:40:16.596Z,9.02
2018-04-28T03:42:48.482Z,8.79
2018-04-28T03:45:14.340Z,8.43
2018-04-28T03:47:48.125Z,8.10
2018-04-28T03:50:25.913Z,8.11
2018-04-28T03:52:51.810Z,8.13
2018-04-28T03:55:17.672Z,8.13
2018-04-28T03:57:55.816Z,8.15
2018-04-28T04:00:33.834Z,8.37
2018-04-28T04:03:19.540Z,8.47
2018-04-28T04:05:57.766Z,8.66
2018-04-28T04:08:23.623Z,8.82
2018-04-28T04:10:58.369Z,8.95
2018-04-28T04:13:36.430Z,9.06
2018-04-28T04:16:05.058Z,9.05
2018-04-28T04:18:41.106Z,9.11
2018-04-28T04:24:30.366Z,9.26
2018-04-28T04:27:11.021Z,9.04
2018-04-28T04:29:43.884Z,9.07
2018-04-28T04:32:14.548Z,8.91
2018-04-28T04:37:54.905Z,9.13
2018-04-28T04:40:41.736Z,9.14
2018-04-28T04:43:17.468Z,9.16
2018-04-28T04:45:52.302Z,8.93
2018-04-28T04:48:18.168Z,9.12
2018-04-28T04:50:55.309Z,9.24
2018-04-28T04:53:23.874Z,9.45
2018-04-28T04:55:59.841Z,9.64
2018-04-28T04:58:30.638Z,9.68
2018-04-28T05:01:18.405Z,9.76
2018-04-28T05:03:51.322Z,9.91
2018-04-28T05:06:26.328Z,10.00
2018-04-28T05:12:03.203Z,10.07
2018-04-28T05:17:54.880Z,10.56
2018-04-28T05:23:39.393Z,10.94
2018-04-28T05:26:17.299Z,11.14
2018-04-28T05:28:50.052Z,11.31
2018-04-28T05:31:25.871Z,11.55
2018-04-28T05:34:04.880Z,11.77
2018-04-28T05:36:42.833Z,11.93
2018-04-28T05:39:20.897Z,12.14
2018-04-28T05:41:57.129Z,12.27
2018-04-28T05:47:28.481Z,12.66
2018-04-28T05:53:15.083Z,12.89
2018-04-28T05:59:06.640Z,13.23
2018-04-28T06:04:48.032Z,13.77
2018-04-28T06:10:15.529Z,14.42
2018-04-28T06:13:00.320Z,14.59
2018-04-28T06:15:27.912Z,14.70
2018-04-28T06:20:58.705Z,14.81
2018-04-28T06:23:24.597Z,14.98
2018-04-28T06:25:50.452Z,14.91
2018-04-28T06:28:16.293Z,14.92
2018-04-28T06:30:42.173Z,14.85
2018-04-28T06:33:08.048Z,14.96
2018-04-28T06:35:33.969Z,14.97
2018-04-28T06:37:59.847Z,15.00
2018-04-28T06:40:25.733Z,15.01
2018-04-28T06:42:51.569Z,15.10
2018-04-28T06:45:17.449Z,15.10
2018-04-28T06:47:43.320Z,15.03
2018-04-28T06:50:09.232Z,15.05
2018-04-28T06:52:35.116Z,15.22
2018-04-28T06:55:00.998Z,15.48
2018-04-28T06:57:26.864Z,15.71
2018-04-28T06:59:52.841Z,15.79
2018-04-28T07:02:18.733Z,15.78
2018-04-28T07:04:44.600Z,15.69
2018-04-28T07:07:10.482Z,15.73
2018-04-28T07:09:36.336Z,15.83
2018-04-28T07:12:02.208Z,15.84
2018-04-28T07:14:28.093Z,15.92
2018-04-28T07:16:53.970Z,15.83
2018-04-28T07:19:19.833Z,15.79
2018-04-28T07:21:45.722Z,15.76
2018-04-28T07:24:11.671Z,16.10
2018-04-28T07:26:37.589Z,16.46
2018-04-28T07:29:03.500Z,16.87
2018-04-28T07:31:29.341Z,16.80
2018-04-28T07:33:55.221Z,16.75
2018-04-28T07:36:21.088Z,17.02
2018-04-28T07:38:46.961Z,16.98
2018-04-28T07:41:12.949Z,16.96
2018-04-28T07:43:38.846Z,17.33
2018-04-28T07:46:04.730Z,17.43
2018-04-28T07:48:30.605Z,17.47
2018-04-28T07:50:56.480Z,17.24
2018-04-28T07:53:22.341Z,17.43
2018-04-28T07:55:48.224Z,17.54
2018-04-28T07:58:14.107Z,17.13
2018-04-28T08:00:39.968Z,17.23
2018-04-28T08:03:05.857Z,17.55
2018-04-28T08:05:31.741Z,17.54
2018-04-28T08:07:57.629Z,17.34
2018-04-28T08:10:23.527Z,18.11
2018-04-28T08:12:49.413Z,18.21
2018-04-28T08:15:15.444Z,18.16
2018-04-28T08:17:41.311Z,18.69
2018-04-28T08:20:07.176Z,18.28
2018-04-28T08:22:33.020Z,18.13
2018-04-28T08:24:58.921Z,18.50
2018-04-28T08:27:24.814Z,18.48
2018-04-28T08:29:50.757Z,18.19
2018-04-28T08:32:16.612Z,18.07
2018-04-28T08:34:42.480Z,18.56
2018-04-28T08:37:08.504Z,17.97
2018-04-28T08:39:34.304Z,18.88
2018-04-28T08:42:00.232Z,19.18
2018-04-28T08:44:26.134Z,18.88
2018-04-28T08:46:52.006Z,18.81
2018-04-28T08:49:17.860Z,19.00
2018-04-28T08:51:43.746Z,19.37
2018-04-28T08:54:09.592Z,19.61
2018-04-28T08:56:35.471Z,19.57
2018-04-28T08:59:01.389Z,19.69
2018-04-28T09:01:27.242Z,19.75
2018-04-28T09:03:53.081Z,19.22
2018-04-28T09:06:18.924Z,19.47
2018-04-28T09:08:44.774Z,20.03
2018-04-28T09:11:10.610Z,20.22
2018-04-28T09:13:36.528Z,20.14
2018-04-28T09:16:02.379Z,20.26
2018-04-28T09:18:28.184Z,20.48
2018-04-28T09:20:54.072Z,20.02
2018-04-28T09:23:19.983Z,19.64
2018-04-28T09:25:45.858Z,19.75
2018-04-28T09:28:11.733Z,19.84
2018-04-28T09:30:37.639Z,20.32
2018-04-28T09:33:03.518Z,20.28
2018-04-28T09:35:29.384Z,20.37
2018-04-28T09:37:55.270Z,20.36
2018-04-28T09:40:21.149Z,20.29
2018-04-28T09:42:47.025Z,20.13
2018-04-28T09:45:12.910Z,19.83
2018-04-28T09:47:38.767Z,19.79
2018-04-28T09:50:04.833Z,20.04
2018-04-28T09:52:30.717Z,19.92
2018-04-28T09:54:56.597Z,20.02
2018-04-28T09:57:22.456Z,19.85
2018-04-28T09:59:48.361Z,19.87
2018-04-28T10:02:18.176Z,19.77
2018-04-28T10:04:44.018Z,19.70
2018-04-28T10:07:09.890Z,19.58
2018-04-28T10:09:35.724Z,19.21
2018-04-28T10:12:01.579Z,19.16
2018-04-28T10:14:27.434Z,19.17
2018-04-28T10:16:53.292Z,19.11
2018-04-28T10:19:19.133Z,19.18
2018-04-28T10:21:45.003Z,18.66
2018-04-28T10:24:10.846Z,18.50
2018-04-28T10:26:36.714Z,18.55
2018-04-28T10:29:02.565Z,18.62
2018-04-28T10:31:28.453Z,18.78
2018-04-28T10:33:54.285Z,18.89
2018-04-28T10:36:20.148Z,18.79
2018-04-28T10:38:46.033Z,18.89
2018-04-28T10:41:11.885Z,18.88
2018-04-28T10:43:37.755Z,18.87
2018-04-28T10:46:03.666Z,18.78
2018-04-28T10:48:29.533Z,18.74
2018-04-28T10:50:55.353Z,18.66
2018-04-28T10:53:21.192Z,18.74
2018-04-28T10:55:47.044Z,18.82
2018-04-28T10:58:12.899Z,18.98
2018-04-28T11:00:38.758Z,19.02
2018-04-28T11:03:04.608Z,19.33
2018-04-28T11:05:30.518Z,19.56
2018-04-28T11:07:56.341Z,19.41
2018-04-28T11:10:22.217Z,19.44
2018-04-28T11:12:48.092Z,19.56
2018-04-28T11:15:13.967Z,19.42
2018-04-28T11:17:39.817Z,19.61
2018-04-28T11:20:05.797Z,19.69
2018-04-28T11:22:31.609Z,19.70
2018-04-28T11:24:57.445Z,19.75
2018-04-28T11:27:23.326Z,19.14
2018-04-28T11:29:49.184Z,19.60
2018-04-28T11:32:15.022Z,19.57
2018-04-28T11:34:40.875Z,19.85
2018-04-28T11:37:06.718Z,20.01
2018-04-28T11:39:32.598Z,19.54
2018-04-28T11:41:58.501Z,19.75
2018-04-28T11:44:24.386Z,19.94
2018-04-28T11:46:50.265Z,20.46
2018-04-28T11:49:16.093Z,20.51
2018-04-28T11:51:41.975Z,20.10
2018-04-28T11:54:07.844Z,21.13
2018-04-28T11:56:33.724Z,20.72
2018-04-28T11:58:59.641Z,20.43
2018-04-28T12:01:25.516Z,20.22
2018-04-28T12:03:51.380Z,20.25
2018-04-28T12:06:17.213Z,20.55
2018-04-28T12:08:50.568Z,20.80
2018-04-28T12:11:16.388Z,20.73
2018-04-28T12:13:42.324Z,20.72
2018-04-28T12:16:08.185Z,20.68
2018-04-28T12:18:34.040Z,20.78
2018-04-28T12:20:59.914Z,21.03
2018-04-28T12:23:25.800Z,21.24
2018-04-28T12:25:51.701Z,21.11
2018-04-28T12:28:17.600Z,21.16
2018-04-28T12:30:43.475Z,20.56
2018-04-28T12:33:09.390Z,20.58
2018-04-28T12:35:35.296Z,20.63
2018-04-28T12:38:01.141Z,20.21
2018-04-28T12:40:27.020Z,21.03
2018-04-28T12:42:53.708Z,21.85
2018-04-28T12:45:19.556Z,22.21
2018-04-28T12:47:45.425Z,22.51
2018-04-28T12:50:11.268Z,22.08
2018-04-28T12:52:37.138Z,22.25
2018-04-28T12:55:03.001Z,22.64
2018-04-28T12:57:28.866Z,22.46
2018-04-28T12:59:54.725Z,22.77
2018-04-28T13:02:20.589Z,22.83
2018-04-28T13:04:46.416Z,23.14
2018-04-28T13:07:12.234Z,23.07
2018-04-28T13:09:38.085Z,23.21
2018-04-28T13:12:03.968Z,23.20
2018-04-28T13:14:29.819Z,22.93
2018-04-28T13:16:55.641Z,22.87
2018-04-28T13:19:21.489Z,22.91
2018-04-28T13:21:47.340Z,23.53
2018-04-28T13:24:13.181Z,22.60
2018-04-28T13:26:39.016Z,23.57
2018-04-28T13:29:04.921Z,23.16
2018-04-28T13:31:30.834Z,23.33
2018-04-28T13:33:56.606Z,23.26
2018-04-28T13:36:22.462Z,22.91
2018-04-28T13:38:48.311Z,23.33
2018-04-28T13:41:14.182Z,23.29
2018-04-28T13:43:40.021Z,22.70
2018-04-28T13:46:05.869Z,23.99
2018-04-28T13:48:31.709Z,22.40
2018-04-28T13:50:57.576Z,22.77
2018-04-28T13:53:23.431Z,22.98
2018-04-28T13:55:49.303Z,22.39
2018-04-28T13:58:15.168Z,22.51
2018-04-28T14:00:41.051Z,22.62
2018-04-28T14:03:06.898Z,23.96
2018-04-28T14:05:32.789Z,24.32
2018-04-28T14:07:58.658Z,23.92
2018-04-28T14:10:24.522Z,24.43
2018-04-28T14:12:50.400Z,23.77
2018-04-28T14:15:16.262Z,24.44
2018-04-28T14:17:42.149Z,24.60
2018-04-28T14:20:07.992Z,24.65
2018-04-28T14:22:33.859Z,24.11
2018-04-28T14:24:59.743Z,23.77
2018-04-28T14:27:25.635Z,23.27
2018-04-28T14:29:51.479Z,22.90
2018-04-28T14:32:17.306Z,22.79
2018-04-28T14:34:43.158Z,22.80
2018-04-28T14:37:09.002Z,22.49
2018-04-28T14:39:34.909Z,22.36
2018-04-28T14:42:00.769Z,21.91
2018-04-28T14:44:26.632Z,22.64
2018-04-28T14:46:52.508Z,23.16
2018-04-28T14:49:18.436Z,23.30
2018-04-28T14:51:44.276Z,23.19
2018-04-28T14:54:10.121Z,23.66
2018-04-28T14:56:35.996Z,22.86
2018-04-28T14:59:01.865Z,22.47
2018-04-28T15:01:27.721Z,22.06
2018-04-28T15:03:53.600Z,22.26
2018-04-28T15:06:19.501Z,22.87
2018-04-28T15:08:45.400Z,23.47
2018-04-28T15:11:11.315Z,23.86
2018-04-28T15:13:37.168Z,24.18
2018-04-28T15:16:03.057Z,25.04
2018-04-28T15:18:28.915Z,24.14
2018-04-28T15:20:54.777Z,23.55
2018-04-28T15:23:20.676Z,22.62
2018-04-28T15:25:46.543Z,23.00
2018-04-28T15:28:12.398Z,23.09
2018-04-28T15:30:38.302Z,22.67
2018-04-28T15:33:04.187Z,21.88
2018-04-28T15:35:30.035Z,22.21
2018-04-28T15:37:55.895Z,22.35
2018-04-28T15:40:21.760Z,23.00
2018-04-28T15:42:47.633Z,23.60
2018-04-28T15:45:13.509Z,24.75
2018-04-28T15:47:39.368Z,23.52
2018-04-28T15:50:05.246Z,24.14
2018-04-28T15:52:31.101Z,24.35
2018-04-28T15:54:56.968Z,23.74
2018-04-28T15:57:22.839Z,24.81
2018-04-28T15:59:48.725Z,24.94
2018-04-28T16:02:14.565Z,25.47
2018-04-28T16:04:40.428Z,25.48
2018-04-28T16:07:06.279Z,24.97
2018-04-28T16:09:32.216Z,24.28
2018-04-28T16:11:58.067Z,23.59
2018-04-28T16:14:23.922Z,23.87
2018-04-28T16:16:49.765Z,23.71
2018-04-28T16:19:15.624Z,22.97
2018-04-28T16:21:41.512Z,23.51
2018-04-28T16:24:07.356Z,22.60
2018-04-28T16:26:33.229Z,22.54
2018-04-28T16:31:31.771Z,21.86
2018-04-28T16:33:57.625Z,21.67
2018-04-28T16:36:23.493Z,21.64
2018-04-28T16:38:49.381Z,21.46
2018-04-28T16:41:15.217Z,21.63
2018-04-28T16:43:41.053Z,21.73
2018-04-28T16:46:06.887Z,21.59
2018-04-28T16:48:32.771Z,21.30
2018-04-28T16:50:58.629Z,21.39
2018-04-28T16:53:24.508Z,21.23
2018-04-28T16:55:50.387Z,21.24
2018-04-28T16:58:16.304Z,21.04
2018-04-28T17:00:42.138Z,20.73
2018-04-28T17:03:07.992Z,20.74
2018-04-28T17:05:33.873Z,20.87
2018-04-28T17:07:59.727Z,20.75
2018-04-28T17:10:25.597Z,20.68
2018-04-28T17:12:51.463Z,20.75
2018-04-28T17:15:17.360Z,20.69
2018-04-28T17:17:52.520Z,20.61
2018-04-28T17:20:18.421Z,20.51
2018-04-28T17:22:44.296Z,20.46
2018-04-28T17:25:10.161Z,20.45
2018-04-28T17:27:36.026Z,20.34
2018-04-28T17:30:01.889Z,20.46
2018-04-28T17:32:27.767Z,20.30
2018-04-28T17:34:53.641Z,20.05
2018-04-28T17:37:19.551Z,20.10
2018-04-28T17:39:45.373Z,20.07
2018-04-28T17:42:11.214Z,20.03
2018-04-28T17:44:37.084Z,19.87
2018-04-28T17:47:02.961Z,19.60
2018-04-28T17:49:28.808Z,19.70
2018-04-28T17:51:54.672Z,19.57
2018-04-28T17:54:20.533Z,19.65
2018-04-28T17:56:46.381Z,19.69
2018-04-28T17:59:12.274Z,19.61
2018-04-28T18:01:38.161Z,19.44
2018-04-28T18:04:04.044Z,19.16
2018-04-28T18:06:29.888Z,18.90
2018-04-28T18:08:55.759Z,18.92
2018-04-28T18:11:21.644Z,18.97
2018-04-28T18:13:47.530Z,18.84
2018-04-28T18:16:13.410Z,19.15
2018-04-28T18:18:39.301Z,18.92
2018-04-28T18:21:05.191Z,18.90
2018-04-28T18:23:31.049Z,18.76
2018-04-28T18:25:56.926Z,18.49
2018-04-28T18:28:22.786Z,18.40
2018-04-28T18:30:48.628Z,18.23
2018-04-28T18:33:14.513Z,18.20
2018-04-28T18:35:40.394Z,18.12
2018-04-28T18:38:06.268Z,17.60
2018-04-28T18:40:32.135Z,17.38
2018-04-28T18:42:58.010Z,17.35
2018-04-28T18:45:23.878Z,17.30
2018-04-28T18:47:49.745Z,17.09
2018-04-28T18:50:15.576Z,16.83
2018-04-28T18:52:41.445Z,16.83
2018-04-28T18:55:07.314Z,17.01
2018-04-28T18:57:33.136Z,16.90
2018-04-28T18:59:59.012Z,16.91
2018-04-28T19:02:24.873Z,17.00
2018-04-28T19:04:50.749Z,16.98
2018-04-28T19:07:16.604Z,17.12
2018-04-28T19:09:42.488Z,17.09
2018-04-28T19:12:08.354Z,16.89
2018-04-28T19:14:34.265Z,16.67
2018-04-28T19:17:00.100Z,16.74
2018-04-28T19:19:25.949Z,16.55
2018-04-28T19:21:51.837Z,16.67
2018-04-28T19:24:17.733Z,16.41
2018-04-28T19:26:43.598Z,16.16
2018-04-28T19:29:09.455Z,16.13
2018-04-28T19:31:35.338Z,16.00
2018-04-28T19:34:01.229Z,16.06
2018-04-28T19:36:27.096Z,16.14
2018-04-28T19:38:59.868Z,16.09
2018-04-28T19:41:25.801Z,16.16
2018-04-28T19:43:51.735Z,16.24
2018-04-28T19:46:17.617Z,16.23
2018-04-28T19:48:43.549Z,16.21
2018-04-28T19:51:09.387Z,16.08
2018-04-28T19:53:35.253Z,16.06
2018-04-28T19:56:01.183Z,16.14
2018-04-28T19:58:27.065Z,16.09
2018-04-28T20:00:52.948Z,16.23
2018-04-28T20:03:18.864Z,16.00
2018-04-28T20:05:44.754Z,15.87
2018-04-28T20:08:10.617Z,15.83
2018-04-28T20:10:36.484Z,15.64
2018-04-28T20:13:02.359Z,15.37
2018-04-28T20:15:28.188Z,15.12
2018-04-28T20:17:54.048Z,15.12
2018-04-28T20:20:19.912Z,15.17
2018-04-28T20:22:58.022Z,15.13
2018-04-28T20:25:23.926Z,15.05
2018-04-28T20:27:49.793Z,15.23
2018-04-28T20:30:15.784Z,15.27
2018-04-28T20:32:41.579Z,15.40
2018-04-28T20:35:07.456Z,15.49
2018-04-28T20:37:33.296Z,15.53
2018-04-28T20:39:59.173Z,15.60
2018-04-28T20:42:25.042Z,15.65
2018-04-28T20:44:50.898Z,15.45
2018-04-28T20:47:16.758Z,15.31
2018-04-28T20:49:42.653Z,15.18
2018-04-28T20:52:08.489Z,15.15
2018-04-28T20:54:34.354Z,15.04
2018-04-28T20:57:00.248Z,14.76
2018-04-28T20:59:26.156Z,14.72
2018-04-28T21:01:51.975Z,14.72
2018-04-28T21:04:17.806Z,14.73
2018-04-28T21:06:43.660Z,14.75
2018-04-28T21:09:09.507Z,14.68
2018-04-28T21:11:35.407Z,14.61
2018-04-28T21:14:01.315Z,14.67
2018-04-28T21:16:27.179Z,14.66
2018-04-28T21:18:53.064Z,14.34
2018-04-28T21:21:18.909Z,14.22
2018-04-28T21:23:44.782Z,14.08
2018-04-28T21:26:10.724Z,13.64
2018-04-28T21:28:36.567Z,13.89
2018-04-28T21:31:02.416Z,13.98
2018-04-28T21:33:28.298Z,13.74
2018-04-28T21:35:54.182Z,13.74
2018-04-28T21:38:20.035Z,13.64
2018-04-28T21:40:45.888Z,13.73
2018-04-28T21:43:11.749Z,13.81
2018-04-28T21:45:37.612Z,13.85
2018-04-28T21:48:03.791Z,13.89
2018-04-28T21:50:29.927Z,13.93
2018-04-28T21:52:55.766Z,13.86
2018-04-28T21:55:21.634Z,13.91
2018-04-28T21:57:47.518Z,13.91
2018-04-28T22:00:13.387Z,13.75
2018-04-28T22:02:39.303Z,13.99
2018-04-28T22:05:05.161Z,13.59
2018-04-28T22:07:31.059Z,13.57
2018-04-28T22:09:56.936Z,13.54
2018-04-28T22:12:22.831Z,13.40
2018-04-28T22:14:48.678Z,13.40
2018-04-28T22:17:14.537Z,13.31
2018-04-28T22:19:40.422Z,13.30
2018-04-28T22:22:06.281Z,13.17
2018-04-28T22:24:32.157Z,13.01
2018-04-28T22:26:58.043Z,12.86
2018-04-28T22:29:23.869Z,12.77
2018-04-28T22:31:49.760Z,12.66
2018-04-28T22:34:15.592Z,12.73
2018-04-28T22:36:41.445Z,12.72
2018-04-28T22:39:07.273Z,12.70
2018-04-28T22:41:33.136Z,12.58
2018-04-28T22:43:59.048Z,12.47
2018-04-28T22:46:24.892Z,12.70
2018-04-28T22:48:50.806Z,12.82
2018-04-28T22:51:16.638Z,12.96
2018-04-28T22:53:42.488Z,12.99
2018-04-28T22:56:08.367Z,12.82
2018-04-28T22:58:34.216Z,12.86
2018-04-28T23:01:00.139Z,12.61
2018-04-28T23:03:26.052Z,12.72
2018-04-28T23:05:51.976Z,12.75
2018-04-28T23:08:17.914Z,12.72
2018-04-28T23:10:43.749Z,12.67
2018-04-28T23:13:09.584Z,12.72
2018-04-28T23:15:35.456Z,12.79
2018-04-28T23:18:01.342Z,12.42
2018-04-28T23:20:27.194Z,12.43
2018-04-28T23:22:53.074Z,12.50
2018-04-28T23:25:18.964Z,12.60
2018-04-28T23:27:44.848Z,12.12
2018-04-28T23:30:10.696Z,11.75
2018-04-28T23:32:36.580Z,11.70
2018-04-28T23:35:02.425Z,11.79
2018-04-28T23:37:28.314Z,11.84
2018-04-28T23:39:54.192Z,11.88
2018-04-28T23:42:20.099Z,11.88
2018-04-28T23:44:45.965Z,12.02
2018-04-28T23:47:11.844Z,11.86
2018-04-28T23:49:37.713Z,11.80
2018-04-28T23:52:03.592Z,11.84
2018-04-28T23:54:29.474Z,11.70
2018-04-28T23:56:55.314Z,11.83
2018-04-28T23:59:21.237Z,11.86
